Time;durP1;ratioP1;P1;durP2;ratioP2;P2;SDS_P1;SDS_P2;PMS_P1;PMS_P2;Temp;Humidity;BMP_temperature;BMP_pressure;BME280_temperature;BME280_humidity;BME280_pressure;Samples;Min_cycle;Max_cycle;Signal;HPM_P1;HPM_P2
2021/07/31 00:00:46;;;;;;;4.80;2.70;;;18.10;99.90;;;;;;5024081;28;20296;-90
2021/07/31 00:03:12;;;;;;;3.90;2.63;;;18.00;99.90;;;;;;5027258;28;20446;-87
2021/07/31 00:05:37;;;;;;;4.10;2.67;;;17.90;99.90;;;;;;5017436;28;20182;-94
2021/07/31 00:08:03;;;;;;;2.93;2.50;;;17.90;99.90;;;;;;5024763;28;20173;-91
2021/07/31 00:10:29;;;;;;;6.37;3.70;;;17.80;99.90;;;;;;5023980;28;20181;-89
2021/07/31 00:12:55;;;;;;;3.47;2.80;;;17.80;99.90;;;;;;5022354;28;20509;-87
2021/07/31 00:15:20;;;;;;;7.20;3.60;;;17.80;99.90;;;;;;5019431;28;20175;-88
2021/07/31 00:17:46;;;;;;;4.73;2.87;;;17.70;99.90;;;;;;5022623;28;20181;-88
2021/07/31 00:20:12;;;;;;;3.50;2.73;;;17.60;99.90;;;;;;5026994;28;20205;-89
2021/07/31 00:22:37;;;;;;;4.60;4.20;;;17.50;99.90;;;;;;5033728;28;20185;-91
2021/07/31 00:25:04;;;;;;;3.70;2.83;;;17.40;99.90;;;;;;5027490;28;20189;-92
2021/07/31 00:27:29;;;;;;;5.90;3.50;;;17.30;99.90;;;;;;5012815;28;20174;-90
2021/07/31 00:29:55;;;;;;;3.87;3.10;;;17.40;99.90;;;;;;5013555;28;20509;-92
2021/07/31 00:32:20;;;;;;;3.70;3.00;;;17.30;99.90;;;;;;5013232;28;20189;-89
2021/07/31 00:34:46;;;;;;;5.77;2.87;;;17.30;99.90;;;;;;5014265;28;20189;-93
2021/07/31 00:37:12;;;;;;;4.40;2.87;;;17.40;99.90;;;;;;5027015;28;20181;-93
2021/07/31 00:39:40;;;;;;;3.60;2.50;;;17.50;99.90;;;;;;5022326;28;20220;-93
2021/07/31 00:42:07;;;;;;;6.50;2.50;;;17.30;99.90;;;;;;5025314;28;20427;-94
2021/07/31 00:44:34;;;;;;;4.03;2.20;;;17.30;99.90;;;;;;5032085;28;20507;-93
2021/07/31 00:47:00;;;;;;;3.70;2.33;;;17.30;99.90;;;;;;5013268;28;20436;-90
2021/07/31 00:49:26;;;;;;;2.73;2.03;;;17.40;99.90;;;;;;5018127;28;20538;-92
2021/07/31 00:51:51;;;;;;;3.40;2.00;;;17.40;99.90;;;;;;5037034;28;20241;-90
2021/07/31 00:54:18;;;;;;;4.60;3.03;;;17.20;99.90;;;;;;5033613;28;20474;-91
2021/07/31 00:56:44;;;;;;;6.87;2.90;;;17.30;99.90;;;;;;5032771;28;20183;-90
2021/07/31 00:59:11;;;;;;;3.50;2.60;;;17.30;99.90;;;;;;5032277;28;20462;-91
2021/07/31 01:01:38;;;;;;;4.17;3.00;;;17.30;99.90;;;;;;5016938;28;20531;-90
2021/07/31 01:04:04;;;;;;;4.73;2.73;;;17.20;99.90;;;;;;5012715;28;20430;-86
2021/07/31 01:06:30;;;;;;;3.90;3.47;;;17.20;99.90;;;;;;5012489;28;20895;-86
2021/07/31 01:08:56;;;;;;;4.10;3.30;;;17.20;99.90;;;;;;5010539;28;20171;-87
2021/07/31 01:11:22;;;;;;;4.57;3.20;;;17.20;99.90;;;;;;5010780;28;20187;-86
2021/07/31 01:13:49;;;;;;;5.37;3.83;;;17.10;99.90;;;;;;5010949;28;20172;-87
2021/07/31 01:16:14;;;;;;;4.70;3.43;;;17.10;99.90;;;;;;5027365;28;20420;-88
2021/07/31 01:18:41;;;;;;;4.57;3.53;;;17.20;99.90;;;;;;5011563;28;20417;-88
2021/07/31 01:21:07;;;;;;;5.00;4.50;;;17.10;99.90;;;;;;5012768;28;20176;-88
2021/07/31 01:23:32;;;;;;;6.90;3.57;;;17.10;99.90;;;;;;5011440;28;20411;-88
2021/07/31 01:25:58;;;;;;;6.20;4.27;;;17.10;99.90;;;;;;5026911;28;20427;-90
2021/07/31 01:28:25;;;;;;;6.10;3.33;;;17.10;99.90;;;;;;5032232;28;20172;-92
2021/07/31 01:30:50;;;;;;;6.00;4.20;;;17.00;99.90;;;;;;5032218;28;20227;-90
2021/07/31 01:33:16;;;;;;;7.40;5.10;;;16.90;99.90;;;;;;5031822;28;20446;-88
2021/07/31 01:35:42;;;;;;;6.17;4.80;;;16.90;99.90;;;;;;5032899;28;20259;-89
2021/07/31 01:38:07;;;;;;;6.13;5.53;;;16.90;99.90;;;;;;5031206;28;20271;-87
2021/07/31 01:40:33;;;;;;;6.63;5.97;;;16.90;99.90;;;;;;5030600;28;20222;-89
2021/07/31 01:42:59;;;;;;;7.77;6.33;;;16.90;99.90;;;;;;5040040;28;20267;-88
2021/07/31 01:45:25;;;;;;;7.53;6.30;;;16.80;99.90;;;;;;5033746;28;20656;-89
2021/07/31 01:47:51;;;;;;;8.23;7.43;;;16.80;99.90;;;;;;5033276;28;20623;-89
2021/07/31 01:50:17;;;;;;;9.60;8.60;;;16.80;99.90;;;;;;5034135;28;20492;-92
2021/07/31 01:52:43;;;;;;;7.47;6.77;;;16.80;99.90;;;;;;5035758;28;20688;-90
2021/07/31 01:55:10;;;;;;;7.63;6.83;;;16.90;99.90;;;;;;5035607;28;20861;-92
2021/07/31 01:57:35;;;;;;;8.03;7.00;;;16.70;99.90;;;;;;5034521;28;20459;-88
2021/07/31 02:00:01;;;;;;;9.33;6.47;;;16.70;99.90;;;;;;5033993;28;20516;-86
2021/07/31 02:02:26;;;;;;;6.93;6.23;;;16.60;99.90;;;;;;5035540;28;20166;-89
2021/07/31 02:04:52;;;;;;;6.63;5.43;;;16.60;99.90;;;;;;5035973;28;20178;-90
2021/07/31 02:07:17;;;;;;;6.37;4.17;;;16.60;99.90;;;;;;5035106;28;20647;-91
2021/07/31 02:09:44;;;;;;;6.93;5.20;;;16.50;99.90;;;;;;5034624;28;20249;-86
2021/07/31 02:12:10;;;;;;;4.93;4.43;;;16.50;99.90;;;;;;5035745;28;20894;-87
2021/07/31 02:14:36;;;;;;;5.70;4.27;;;16.40;99.90;;;;;;5035703;28;20267;-87
2021/07/31 02:17:02;;;;;;;5.97;4.77;;;16.40;99.90;;;;;;5034518;28;20175;-87
2021/07/31 02:19:30;;;;;;;7.10;4.30;;;16.30;99.90;;;;;;5034289;28;20508;-87
2021/07/31 02:21:57;;;;;;;4.13;3.73;;;16.30;99.90;;;;;;5034389;28;20188;-88
2021/07/31 02:24:22;;;;;;;3.70;3.00;;;16.20;99.90;;;;;;5033909;28;20419;-88
2021/07/31 02:26:48;;;;;;;3.73;3.03;;;16.20;99.90;;;;;;5035517;28;20434;-88
2021/07/31 02:29:14;;;;;;;5.80;3.53;;;16.20;99.90;;;;;;5034117;28;20263;-88
2021/07/31 02:31:40;;;;;;;5.27;2.70;;;16.20;99.90;;;;;;5034140;28;20174;-87
2021/07/31 02:34:06;;;;;;;5.40;2.43;;;16.20;99.90;;;;;;5035611;28;20419;-87
2021/07/31 02:36:31;;;;;;;4.10;3.70;;;16.10;99.90;;;;;;5035604;28;20190;-89
2021/07/31 02:38:57;;;;;;;3.60;2.77;;;16.10;99.90;;;;;;5035109;28;20180;-87
2021/07/31 02:41:22;;;;;;;3.27;2.20;;;16.00;99.90;;;;;;5034145;28;20189;-87
2021/07/31 02:43:48;;;;;;;3.57;2.30;;;15.90;99.90;;;;;;5034073;28;20538;-88
2021/07/31 02:46:13;;;;;;;5.00;3.13;;;15.90;99.90;;;;;;5034010;28;20188;-88
2021/07/31 02:48:39;;;;;;;3.53;2.73;;;15.90;99.90;;;;;;5035127;28;20615;-89
2021/07/31 02:51:08;;;;;;;5.27;2.97;;;15.90;99.90;;;;;;5033862;28;20175;-88
2021/07/31 02:53:33;;;;;;;5.60;2.50;;;15.80;99.90;;;;;;5033294;28;20981;-87
2021/07/31 02:55:59;;;;;;;3.67;2.50;;;15.90;99.90;;;;;;5035133;28;20416;-89
2021/07/31 02:58:25;;;;;;;3.00;1.90;;;16.00;99.90;;;;;;5033841;28;20190;-88
2021/07/31 03:00:51;;;;;;;5.80;2.37;;;15.90;99.90;;;;;;5034247;28;20465;-88
2021/07/31 03:03:17;;;;;;;3.00;2.30;;;16.00;99.90;;;;;;5033397;28;20174;-89
2021/07/31 03:05:42;;;;;;;4.87;2.40;;;16.10;99.90;;;;;;5034836;28;20409;-88
2021/07/31 03:08:08;;;;;;;4.23;2.60;;;16.10;99.90;;;;;;5033168;28;20170;-88
2021/07/31 03:10:34;;;;;;;4.40;2.40;;;16.10;99.90;;;;;;5033904;28;20631;-89
2021/07/31 03:12:59;;;;;;;3.50;3.20;;;16.10;99.90;;;;;;5035268;28;20248;-90
2021/07/31 03:15:25;;;;;;;3.83;2.23;;;16.10;99.90;;;;;;5041858;28;20175;-89
2021/07/31 03:17:50;;;;;;;4.20;3.03;;;16.20;99.90;;;;;;5036411;28;20188;-90
2021/07/31 03:20:16;;;;;;;5.73;1.90;;;16.30;99.90;;;;;;5030200;28;20206;-89
2021/07/31 03:22:42;;;;;;;5.60;2.60;;;16.20;99.90;;;;;;5027436;28;20606;-90
2021/07/31 03:25:08;;;;;;;7.50;2.50;;;16.20;99.90;;;;;;5020539;28;20175;-88
2021/07/31 03:27:34;;;;;;;2.60;1.70;;;16.10;99.90;;;;;;5013994;28;20210;-89
2021/07/31 03:30:01;;;;;;;4.87;1.60;;;16.00;99.90;;;;;;5018408;28;20442;-89
2021/07/31 03:32:26;;;;;;;7.23;2.17;;;15.90;99.90;;;;;;5025253;28;20175;-89
2021/07/31 03:34:52;;;;;;;2.47;1.43;;;15.90;99.90;;;;;;5024449;28;20429;-89
2021/07/31 03:37:18;;;;;;;4.00;1.30;;;15.90;99.90;;;;;;5018873;28;20178;-91
2021/07/31 03:39:43;;;;;;;4.40;1.47;;;15.90;99.90;;;;;;5021451;28;20248;-89
2021/07/31 03:42:09;;;;;;;5.97;1.67;;;16.00;99.90;;;;;;5028967;28;20210;-89
2021/07/31 03:44:34;;;;;;;7.63;1.80;;;16.00;99.90;;;;;;5033239;28;20174;-90
2021/07/31 03:47:00;;;;;;;5.10;2.03;;;16.10;99.90;;;;;;5025363;28;20634;-89
2021/07/31 03:49:26;;;;;;;4.50;1.87;;;16.10;99.90;;;;;;5028293;28;20185;-89
2021/07/31 03:51:55;;;;;;;4.00;1.27;;;16.20;99.90;;;;;;5024645;28;20548;-89
2021/07/31 03:54:21;;;;;;;4.60;1.67;;;16.20;99.90;;;;;;5021498;28;20187;-88
2021/07/31 03:56:46;;;;;;;2.20;1.20;;;16.10;99.90;;;;;;5016810;28;20430;-90
2021/07/31 03:59:12;;;;;;;3.13;1.13;;;16.10;99.90;;;;;;5027025;28;20508;-90
2021/07/31 04:01:37;;;;;;;3.30;1.07;;;16.20;99.90;;;;;;5013810;28;20199;-90
2021/07/31 04:04:03;;;;;;;5.20;1.70;;;16.20;99.90;;;;;;5013008;28;20775;-89
2021/07/31 04:06:29;;;;;;;3.33;1.47;;;16.20;99.90;;;;;;5012736;28;20227;-88
2021/07/31 04:08:54;;;;;;;6.60;1.20;;;16.10;99.90;;;;;;5013100;28;20185;-89
2021/07/31 04:11:20;;;;;;;4.30;1.37;;;16.20;99.90;;;;;;5012348;28;20188;-89
2021/07/31 04:13:45;;;;;;;2.67;1.00;;;16.20;99.90;;;;;;5012415;28;20239;-86
2021/07/31 04:16:11;;;;;;;1.73;0.63;;;16.20;99.90;;;;;;5012482;28;20655;-87
2021/07/31 04:18:37;;;;;;;4.13;1.27;;;16.20;99.90;;;;;;5014448;28;20612;-89
2021/07/31 04:21:07;;;;;;;3.37;1.20;;;16.20;99.90;;;;;;5033285;28;20298;-88
2021/07/31 04:23:33;;;;;;;2.00;1.30;;;16.20;99.90;;;;;;5046102;28;20695;-87
2021/07/31 04:25:59;;;;;;;5.33;1.50;;;16.20;99.90;;;;;;5031589;28;20524;-88
2021/07/31 04:28:24;;;;;;;2.80;1.27;;;16.30;99.90;;;;;;5031781;28;20822;-87
2021/07/31 04:30:50;;;;;;;3.67;1.20;;;16.10;99.90;;;;;;5031912;28;20179;-89
2021/07/31 04:33:15;;;;;;;5.67;1.23;;;16.00;99.90;;;;;;5033735;28;20627;-89
2021/07/31 04:35:41;;;;;;;3.57;2.00;;;16.10;99.90;;;;;;5033384;28;20639;-88
2021/07/31 04:38:07;;;;;;;2.43;1.50;;;16.10;99.90;;;;;;5031650;28;20181;-87
2021/07/31 04:40:32;;;;;;;5.77;1.43;;;16.10;99.90;;;;;;5033843;28;20222;-89
2021/07/31 04:42:58;;;;;;;2.57;0.90;;;16.10;99.90;;;;;;5032157;28;20174;-88
2021/07/31 04:45:24;;;;;;;2.03;0.97;;;16.10;99.90;;;;;;5034222;28;20641;-89
2021/07/31 04:47:49;;;;;;;2.77;1.13;;;16.20;99.90;;;;;;5039346;28;20176;-90
2021/07/31 04:50:15;;;;;;;4.87;1.53;;;16.10;99.90;;;;;;5033863;28;20209;-90
2021/07/31 04:52:41;;;;;;;2.10;1.40;;;16.10;99.90;;;;;;5032344;28;20710;-88
2021/07/31 04:55:06;;;;;;;2.50;0.70;;;16.10;99.90;;;;;;5032107;28;20440;-89
2021/07/31 04:57:32;;;;;;;3.60;1.53;;;16.10;99.90;;;;;;5032473;28;20194;-90
2021/07/31 04:59:58;;;;;;;5.80;2.17;;;16.10;99.90;;;;;;5033243;28;20468;-88
2021/07/31 05:02:24;;;;;;;5.03;0.97;;;16.00;99.90;;;;;;5032080;28;20947;-88
2021/07/31 05:04:49;;;;;;;3.03;1.27;;;16.10;99.90;;;;;;5032139;28;20175;-89
2021/07/31 05:07:15;;;;;;;4.27;1.70;;;16.40;99.90;;;;;;5033305;28;20186;-88
2021/07/31 05:09:40;;;;;;;7.07;1.57;;;16.50;99.90;;;;;;5032711;28;20253;-88
2021/07/31 05:12:06;;;;;;;5.43;1.80;;;16.60;99.90;;;;;;5033100;28;20653;-88
2021/07/31 05:14:32;;;;;;;5.33;1.30;;;16.50;99.90;;;;;;5032151;28;20178;-87
2021/07/31 05:16:58;;;;;;;3.37;1.20;;;16.50;99.90;;;;;;5033264;28;20631;-86
2021/07/31 05:19:23;;;;;;;6.60;1.80;;;16.40;99.90;;;;;;5034260;28;20230;-88
2021/07/31 05:21:49;;;;;;;4.87;1.33;;;16.40;99.90;;;;;;5031914;28;20178;-87
2021/07/31 05:24:14;;;;;;;3.43;1.30;;;16.40;99.90;;;;;;5032634;28;20167;-85
2021/07/31 05:26:41;;;;;;;3.20;0.97;;;16.40;99.90;;;;;;5036407;28;20177;-86
2021/07/31 05:29:07;;;;;;;2.57;0.90;;;16.50;99.90;;;;;;5035277;28;20542;-87
2021/07/31 05:31:34;;;;;;;2.73;1.50;;;16.60;99.90;;;;;;5035309;28;20771;-88
2021/07/31 05:34:01;;;;;;;1.93;1.17;;;16.70;99.90;;;;;;5035522;28;20409;-88
2021/07/31 05:36:27;;;;;;;4.27;1.37;;;16.60;99.90;;;;;;5036973;28;20499;-87
2021/07/31 05:38:52;;;;;;;4.33;1.43;;;16.70;99.90;;;;;;5034745;28;20428;-87
2021/07/31 05:41:22;;;;;;;2.83;0.47;;;16.80;99.90;;;;;;5035260;28;20434;-89
2021/07/31 05:43:48;;;;;;;4.67;0.97;;;16.70;99.90;;;;;;5035819;28;20185;-90
2021/07/31 05:46:18;;;;;;;2.97;1.27;;;16.80;99.90;;;;;;5035947;28;20945;-89
2021/07/31 05:48:45;;;;;;;4.23;1.90;;;16.90;99.90;;;;;;5035622;28;20422;-90
2021/07/31 05:51:14;;;;;;;3.57;1.20;;;16.90;99.90;;;;;;5035552;28;20421;-88
2021/07/31 05:53:39;;;;;;;3.50;0.37;;;16.90;99.90;;;;;;5036455;28;20468;-88
2021/07/31 05:56:09;;;;;;;6.50;1.37;;;16.80;99.90;;;;;;5035426;28;20422;-88
2021/07/31 05:58:35;;;;;;;5.33;1.40;;;16.90;99.90;;;;;;5036802;28;20307;-91
2021/07/31 06:01:04;;;;;;;4.17;1.07;;;16.80;99.90;;;;;;5035330;28;20480;-89
2021/07/31 06:03:29;;;;;;;4.77;1.10;;;16.80;99.90;;;;;;5036467;28;21071;-88
2021/07/31 06:05:57;;;;;;;3.53;0.73;;;16.90;99.90;;;;;;5035497;28;20528;-90
2021/07/31 06:08:23;;;;;;;4.53;0.80;;;16.70;99.90;;;;;;5035141;28;20198;-89
2021/07/31 06:10:48;;;;;;;3.50;1.07;;;16.70;99.90;;;;;;5035368;28;20425;-89
2021/07/31 06:13:14;;;;;;;2.70;1.10;;;16.60;99.90;;;;;;5035190;28;20175;-88
2021/07/31 06:15:43;;;;;;;3.17;0.80;;;16.80;99.90;;;;;;5036953;28;20567;-89
2021/07/31 06:18:12;;;;;;;3.40;0.77;;;16.80;99.90;;;;;;5034680;28;20183;-88
2021/07/31 06:20:37;;;;;;;5.07;1.00;;;16.90;99.90;;;;;;5018970;28;20470;-89
2021/07/31 06:23:03;;;;;;;2.33;0.83;;;17.00;99.90;;;;;;5015197;28;20427;-89
2021/07/31 06:25:29;;;;;;;3.80;1.33;;;17.30;99.90;;;;;;5015824;28;20183;-90
2021/07/31 06:27:55;;;;;;;13.07;1.47;;;17.20;99.90;;;;;;5016754;28;20171;-89
2021/07/31 06:30:21;;;;;;;3.63;0.83;;;17.30;99.90;;;;;;5016178;28;20186;-90
2021/07/31 06:32:51;;;;;;;7.17;0.80;;;17.30;99.90;;;;;;5016698;28;20425;-88
2021/07/31 06:35:17;;;;;;;3.60;1.23;;;17.30;99.90;;;;;;5016341;28;20786;-87
2021/07/31 06:37:42;;;;;;;3.77;1.37;;;17.50;99.90;;;;;;5016044;28;20180;-90
2021/07/31 06:40:09;;;;;;;6.90;1.30;;;17.60;99.90;;;;;;5014928;28;20213;-89
2021/07/31 06:42:35;;;;;;;4.17;1.03;;;17.80;99.90;;;;;;5016166;28;20178;-90
2021/07/31 06:45:01;;;;;;;2.87;1.00;;;17.60;99.90;;;;;;5016889;28;20482;-89
2021/07/31 06:47:26;;;;;;;5.07;0.93;;;17.50;99.90;;;;;;5015418;28;20184;-89
2021/07/31 06:49:52;;;;;;;2.10;0.63;;;17.50;99.90;;;;;;5015475;28;20491;-86
2021/07/31 06:52:18;;;;;;;5.10;1.10;;;17.60;99.90;;;;;;5015603;28;20224;-89
2021/07/31 06:54:43;;;;;;;2.20;1.00;;;17.70;99.90;;;;;;5016416;28;20280;-88
2021/07/31 06:57:09;;;;;;;3.73;1.13;;;17.80;99.90;;;;;;5015041;28;20657;-87
2021/07/31 06:59:35;;;;;;;4.60;1.30;;;18.00;99.90;;;;;;5016035;28;20197;-89
2021/07/31 07:02:01;;;;;;;3.57;0.80;;;18.20;99.90;;;;;;5015640;28;20410;-89
2021/07/31 07:04:27;;;;;;;5.50;1.33;;;18.40;99.90;;;;;;5014978;28;20429;-90
2021/07/31 07:06:52;;;;;;;6.97;1.17;;;18.30;99.90;;;;;;5015009;28;20174;-90
2021/07/31 07:09:18;;;;;;;9.50;1.27;;;18.20;99.90;;;;;;5015831;28;20234;-90
2021/07/31 07:11:44;;;;;;;3.47;0.90;;;18.00;99.90;;;;;;5015275;28;20263;-90
2021/07/31 07:14:10;;;;;;;4.23;1.30;;;17.90;99.90;;;;;;5015484;28;20172;-89
2021/07/31 07:16:35;;;;;;;4.10;1.27;;;18.10;99.90;;;;;;5014877;28;20178;-89
2021/07/31 07:19:01;;;;;;;3.47;1.20;;;18.30;99.90;;;;;;5014694;28;20440;-89
2021/07/31 07:21:27;;;;;;;5.47;1.43;;;18.80;99.90;;;;;;5014643;28;20664;-89
2021/07/31 07:23:53;;;;;;;5.37;1.00;;;19.20;99.90;;;;;;5014586;28;20185;-90
2021/07/31 07:26:18;;;;;;;4.07;0.80;;;22.80;99.90;;;;;;5014647;28;20196;-90
2021/07/31 07:28:45;;;;;;;5.63;2.30;;;23.20;99.90;;;;;;5014329;28;20525;-87
2021/07/31 07:31:12;;;;;;;3.00;1.10;;;23.50;99.90;;;;;;5015247;28;20624;-90
2021/07/31 07:33:38;;;;;;;3.37;1.30;;;22.80;99.90;;;;;;5015090;28;20420;-85
2021/07/31 07:36:18;;;;;;;4.50;1.40;;;20.70;99.90;;;;;;5015570;28;20906;-88
2021/07/31 07:38:45;;;;;;;3.67;1.00;;;19.70;99.90;;;;;;5025811;28;20489;-90
2021/07/31 07:41:11;;;;;;;3.03;0.97;;;19.40;99.90;;;;;;5025776;28;20470;-88
2021/07/31 07:43:37;;;;;;;4.03;1.30;;;19.10;99.90;;;;;;5020683;28;20424;-90
2021/07/31 07:46:05;;;;;;;4.07;1.20;;;18.90;99.90;;;;;;5023823;28;20431;-89
2021/07/31 07:48:31;;;;;;;5.80;0.93;;;19.90;99.90;;;;;;5024944;28;20420;-92
2021/07/31 07:50:56;;;;;;;2.37;1.10;;;19.50;99.90;;;;;;5018036;28;20427;-89
2021/07/31 07:53:22;;;;;;;4.27;0.83;;;19.20;99.90;;;;;;5013745;28;20224;-89
2021/07/31 07:55:52;;;;;;;4.73;1.10;;;18.90;99.90;;;;;;4999116;28;20191;-90
2021/07/31 07:58:18;;;;;;;5.90;1.70;;;18.80;99.90;;;;;;5014711;28;20177;-92
2021/07/31 08:00:43;;;;;;;3.63;0.80;;;18.50;99.90;;;;;;5014806;28;20557;-91
2021/07/31 08:03:09;;;;;;;5.20;1.57;;;18.50;99.90;;;;;;5014814;28;20202;-91
2021/07/31 08:05:39;;;;;;;4.93;0.90;;;18.50;99.90;;;;;;5014065;28;20204;-92
2021/07/31 08:08:08;;;;;;;2.77;0.83;;;18.30;99.90;;;;;;5025105;28;20523;-87
2021/07/31 08:10:34;;;;;;;3.10;1.07;;;18.20;99.90;;;;;;5026154;28;20424;-93
2021/07/31 08:13:00;;;;;;;3.40;1.10;;;18.20;99.90;;;;;;5026840;28;20424;-87
2021/07/31 08:15:26;;;;;;;4.70;1.20;;;18.40;99.90;;;;;;5023762;28;20504;-93
2021/07/31 08:17:53;;;;;;;4.07;1.67;;;18.20;99.90;;;;;;5031749;28;20433;-93
2021/07/31 08:20:19;;;;;;;9.00;2.57;;;17.90;99.90;;;;;;5029034;28;20479;-91
2021/07/31 08:22:45;;;;;;;4.70;1.30;;;17.90;99.90;;;;;;5035191;28;20920;-91
2021/07/31 08:25:11;;;;;;;1.73;1.53;;;18.00;99.90;;;;;;5032895;28;20180;-90
2021/07/31 08:27:37;;;;;;;6.43;2.07;;;18.00;99.90;;;;;;5049650;28;20442;-92
2021/07/31 08:30:04;;;;;;;3.83;1.10;;;17.90;99.90;;;;;;5105551;23;20224;-90
2021/07/31 08:34:59;;;;;;;3.80;1.50;;;18.00;99.90;;;;;;5280078;22;20462;-92
2021/07/31 08:37:25;;;;;;;5.80;1.80;;;18.60;99.90;;;;;;5271463;22;20485;-93
2021/07/31 08:39:51;;;;;;;2.77;1.00;;;19.30;99.90;;;;;;5248515;22;20464;-92
2021/07/31 08:42:16;;;;;;;4.83;2.53;;;20.30;99.90;;;;;;5059577;28;20191;-93
2021/07/31 08:44:42;;;;;;;5.40;1.60;;;20.30;99.90;;;;;;5055563;28;20622;-92
2021/07/31 08:47:09;;;;;;;3.67;1.60;;;20.40;99.90;;;;;;5049889;28;20267;-86
2021/07/31 08:49:43;;;;;;;2.93;1.30;;;20.70;99.90;;;;;;5042777;28;20271;-86
2021/07/31 08:52:08;;;;;;;2.37;0.77;;;20.30;99.90;;;;;;5048759;28;20759;-86
2021/07/31 08:54:38;;;;;;;3.87;1.50;;;20.80;99.90;;;;;;5043732;28;20419;-85
2021/07/31 08:57:05;;;;;;;2.83;1.47;;;20.30;99.90;;;;;;5045357;28;20183;-90
2021/07/31 08:59:31;;;;;;;4.00;1.33;;;19.90;99.90;;;;;;5051526;28;20469;-91
2021/07/31 09:02:00;;;;;;;4.57;1.70;;;19.20;99.90;;;;;;5041587;28;20433;-87
2021/07/31 09:04:27;;;;;;;3.00;1.50;;;18.90;99.90;;;;;;5046119;28;20409;-93
2021/07/31 09:06:53;;;;;;;2.53;1.77;;;18.50;99.90;;;;;;5056828;28;20465;-91
2021/07/31 09:09:28;;;;;;;2.67;1.30;;;18.60;99.90;;;;;;5057536;28;20416;-94
2021/07/31 09:12:02;;;;;;;3.17;1.20;;;18.60;99.90;;;;;;5058414;28;20427;-91
2021/07/31 09:14:32;;;;;;;3.23;1.20;;;18.60;99.90;;;;;;5058024;28;20457;-91
2021/07/31 09:16:59;;;;;;;2.03;1.50;;;18.50;99.90;;;;;;5064375;28;20426;-92
2021/07/31 09:19:27;;;;;;;3.87;1.13;;;19.20;99.90;;;;;;5083496;28;20452;-92
2021/07/31 09:22:05;;;;;;;4.10;1.50;;;20.40;99.90;;;;;;5079895;28;20778;-92
2021/07/31 09:24:30;;;;;;;5.40;2.20;;;20.80;99.90;;;;;;5048226;28;20451;-92
2021/07/31 09:26:57;;;;;;;2.80;1.27;;;20.50;99.90;;;;;;5037018;28;20434;-92
2021/07/31 09:29:35;;;;;;;3.53;0.90;;;20.50;99.90;;;;;;5041659;28;20189;-90
2021/07/31 09:32:03;;;;;;;4.17;1.27;;;20.80;99.90;;;;;;5042907;28;20813;-92
2021/07/31 09:34:35;;;;;;;4.10;0.77;;;20.50;99.90;;;;;;5053058;28;20418;-92
2021/07/31 09:37:25;;;;;;;4.13;1.50;;;22.20;99.90;;;;;;5033634;28;20763;-90
2021/07/31 09:39:56;;;;;;;3.10;0.80;;;21.80;99.90;;;;;;5047603;28;20492;-93
2021/07/31 09:42:32;;;;;;;1.90;0.97;;;21.70;99.90;;;;;;5047974;28;20419;-88
2021/07/31 09:45:00;;;;;;;1.93;1.43;;;21.30;99.90;;;;;;5038157;28;20521;-91
2021/07/31 09:47:26;;;;;;;2.67;1.20;;;21.30;99.90;;;;;;5042227;28;20786;-91
2021/07/31 09:49:53;;;;;;;3.87;1.63;;;20.50;99.90;;;;;;5041369;28;20429;-92
2021/07/31 09:52:24;;;;;;;3.57;0.90;;;20.60;99.90;;;;;;5041987;28;20261;-92
2021/07/31 09:54:57;;;;;;;3.00;1.00;;;20.90;99.90;;;;;;5039025;28;20942;-92
2021/07/31 09:57:28;;;;;;;3.40;1.00;;;21.20;99.90;;;;;;5033916;28;20451;-92
2021/07/31 10:00:03;;;;;;;2.80;1.40;;;21.10;99.90;;;;;;5030201;28;20475;-90
2021/07/31 10:02:29;;;;;;;4.97;1.47;;;21.80;99.90;;;;;;5054881;28;20950;-90
2021/07/31 10:04:55;;;;;;;4.37;1.07;;;22.20;99.90;;;;;;5055573;28;20417;-93
2021/07/31 10:07:21;;;;;;;2.13;0.70;;;22.50;99.90;;;;;;5049356;28;20441;-93
2021/07/31 10:09:53;;;;;;;3.13;1.37;;;22.10;99.90;;;;;;5046368;28;20568;-93
2021/07/31 10:12:31;;;;;;;5.20;1.43;;;21.50;99.90;;;;;;5039113;28;20178;-91
2021/07/31 10:14:57;;;;;;;1.33;0.53;;;20.60;99.90;;;;;;5040036;28;20418;-89
2021/07/31 10:17:28;;;;;;;4.80;0.90;;;20.10;99.90;;;;;;5046722;28;20427;-89
2021/07/31 10:19:54;;;;;;;3.80;1.00;;;20.00;99.90;;;;;;5036017;28;20487;-89
2021/07/31 10:22:45;;;;;;;4.20;1.27;;;19.90;99.90;;;;;;5050211;28;20423;-91
2021/07/31 10:25:21;;;;;;;3.27;1.10;;;19.80;99.90;;;;;;5037079;28;20171;-89
2021/07/31 10:27:50;;;;;;;4.50;1.50;;;19.70;99.90;;;;;;5046003;28;20420;-90
2021/07/31 10:30:35;;;;;;;3.97;1.10;;;19.70;99.90;;;;;;5043916;28;20502;-89
2021/07/31 10:33:02;;;;;;;5.27;0.97;;;20.40;99.90;;;;;;5050466;28;20427;-91
2021/07/31 10:35:35;;;;;;;2.30;1.23;;;22.30;99.90;;;;;;5056109;28;20473;-96
2021/07/31 10:38:09;;;;;;;6.00;1.33;;;23.60;99.90;;;;;;5046199;28;20425;-93
2021/07/31 10:40:40;;;;;;;4.30;1.20;;;22.40;99.90;;;;;;5053807;28;20488;-92
2021/07/31 10:43:08;;;;;;;3.70;1.07;;;23.30;99.90;;;;;;5052013;28;20414;-92
2021/07/31 10:45:35;;;;;;;3.43;0.63;;;23.90;99.60;;;;;;5049480;28;20469;-94
2021/07/31 10:48:06;;;;;;;3.27;0.60;;;24.50;97.20;;;;;;5055718;28;20420;-92
2021/07/31 10:50:31;;;;;;;1.40;0.33;;;25.80;94.40;;;;;;5046010;28;21001;-91
2021/07/31 10:53:01;;;;;;;3.43;1.07;;;24.60;95.20;;;;;;5042451;28;20420;-92
2021/07/31 10:55:46;;;;;;;4.90;1.17;;;23.40;98.90;;;;;;5054832;28;20178;-93
2021/07/31 10:58:16;;;;;;;2.50;0.60;;;23.10;99.90;;;;;;5054966;28;20473;-91
2021/07/31 11:00:45;;;;;;;2.73;0.40;;;23.10;99.90;;;;;;5055347;28;20492;-91
2021/07/31 11:03:31;;;;;;;3.23;0.70;;;22.50;99.90;;;;;;5055048;28;20423;-90
2021/07/31 11:05:58;;;;;;;2.90;0.33;;;22.30;99.90;;;;;;5054532;28;20922;-92
2021/07/31 11:08:45;;;;;;;2.23;0.50;;;21.90;99.90;;;;;;5055421;28;20487;-93
2021/07/31 11:11:15;;;;;;;1.40;0.60;;;22.20;99.90;;;;;;5056820;28;20421;-90
2021/07/31 11:13:43;;;;;;;3.63;1.03;;;22.20;99.90;;;;;;5055266;28;20914;-94
2021/07/31 11:16:13;;;;;;;2.40;0.57;;;21.70;99.90;;;;;;5055040;28;20183;-91
2021/07/31 11:18:42;;;;;;;3.80;0.63;;;21.30;99.90;;;;;;5055571;28;20418;-92
2021/07/31 11:21:17;;;;;;;1.63;0.43;;;20.70;99.90;;;;;;5054299;28;20483;-90
2021/07/31 11:23:53;;;;;;;2.60;0.43;;;20.70;99.90;;;;;;5053903;28;20552;-89
2021/07/31 11:26:49;;;;;;;1.33;0.57;;;21.00;99.90;;;;;;5055909;28;20443;-92
2021/07/31 11:29:24;;;;;;;1.73;0.30;;;21.90;99.90;;;;;;5048334;28;20418;-90
2021/07/31 11:32:11;;;;;;;2.90;0.63;;;21.80;99.90;;;;;;5054140;28;20517;-93
2021/07/31 11:34:47;;;;;;;4.77;1.13;;;21.50;99.90;;;;;;5066508;28;20503;-94
2021/07/31 11:37:15;;;;;;;0.87;0.50;;;21.60;99.90;;;;;;5041162;28;20416;-92
2021/07/31 11:39:41;;;;;;;1.97;1.00;;;21.50;99.90;;;;;;5055938;28;20496;-91
2021/07/31 11:42:07;;;;;;;1.53;0.63;;;21.50;99.90;;;;;;5056649;28;20432;-88
2021/07/31 11:44:35;;;;;;;1.47;0.67;;;21.90;99.90;;;;;;5059428;28;20445;-95
2021/07/31 11:47:01;;;;;;;1.37;0.53;;;22.30;99.90;;;;;;5055726;28;20452;-90
2021/07/31 11:49:35;;;;;;;1.93;0.40;;;21.90;99.90;;;;;;5054967;28;20463;-90
2021/07/31 11:52:03;;;;;;;2.00;0.50;;;21.60;99.90;;;;;;5052719;28;20483;-90
2021/07/31 11:54:30;;;;;;;1.43;0.30;;;21.40;99.90;;;;;;5053183;28;20431;-89
2021/07/31 11:56:59;;;;;;;3.50;0.93;;;21.10;99.90;;;;;;5053700;28;20927;-87
2021/07/31 11:59:30;;;;;;;2.00;0.43;;;20.90;99.90;;;;;;5057598;28;20505;-93
2021/07/31 12:01:57;;;;;;;3.23;0.60;;;21.00;99.90;;;;;;5057985;28;20427;-94
2021/07/31 12:04:51;;;;;;;1.60;0.67;;;21.30;99.90;;;;;;5058788;28;20427;-90
2021/07/31 12:07:24;;;;;;;3.67;0.80;;;21.30;99.90;;;;;;5057707;28;20422;-93
2021/07/31 12:10:08;;;;;;;1.40;0.67;;;21.20;99.90;;;;;;5059182;28;20414;-95
2021/07/31 12:12:38;;;;;;;2.50;0.70;;;20.60;99.90;;;;;;5060880;28;20489;-93
2021/07/31 12:15:16;;;;;;;4.87;1.07;;;20.40;99.90;;;;;;5057810;28;20422;-91
2021/07/31 12:17:56;;;;;;;4.53;1.20;;;19.70;99.90;;;;;;5059124;28;20456;-93
2021/07/31 12:20:36;;;;;;;3.23;1.07;;;18.70;99.90;;;;;;5057793;28;20472;-91
2021/07/31 12:23:03;;;;;;;2.23;1.67;;;18.00;99.90;;;;;;5064636;28;20479;-87
2021/07/31 12:25:30;;;;;;;4.97;1.90;;;17.70;99.90;;;;;;5059742;28;20438;-91
2021/07/31 12:28:10;;;;;;;5.50;1.20;;;17.50;99.90;;;;;;5062161;28;20411;-93
2021/07/31 12:30:36;;;;;;;4.23;1.70;;;17.40;99.90;;;;;;5057632;28;20422;-92
2021/07/31 12:33:07;;;;;;;4.63;2.27;;;18.10;99.90;;;;;;5055755;28;20407;-91
2021/07/31 12:35:43;;;;;;;3.03;1.47;;;18.30;99.90;;;;;;5055128;28;20439;-90
2021/07/31 12:38:17;;;;;;;7.20;1.90;;;18.30;99.90;;;;;;5053440;28;20455;-90
2021/07/31 12:40:43;;;;;;;5.23;1.97;;;18.30;99.90;;;;;;5055668;28;20477;-90
2021/07/31 12:43:14;;;;;;;6.20;2.13;;;18.40;99.90;;;;;;5055409;28;20420;-91
2021/07/31 12:45:43;;;;;;;2.90;1.00;;;18.40;99.90;;;;;;5054708;28;20207;-93
2021/07/31 12:48:09;;;;;;;4.00;1.40;;;18.40;99.90;;;;;;5054080;28;20907;-94
2021/07/31 12:50:36;;;;;;;2.83;1.17;;;18.70;99.90;;;;;;5053986;28;20476;-90
2021/07/31 12:53:02;;;;;;;2.90;1.63;;;19.00;99.90;;;;;;5053133;28;20426;-92